createdAt,value
2023-04-27T00:01:58.464Z,34.90
2023-04-27T00:07:01.505Z,34.85
2023-04-27T00:12:04.573Z,34.42
2023-04-27T00:17:08.795Z,34.28
2023-04-27T00:22:12.039Z,34.88
2023-04-27T00:27:14.931Z,34.80
2023-04-27T00:32:19.627Z,35.50
2023-04-27T00:37:22.564Z,35.53
2023-04-27T00:42:25.521Z,35.85
2023-04-27T00:47:30.221Z,35.38
2023-04-27T00:52:33.200Z,35.53
2023-04-27T00:57:36.173Z,35.55
2023-04-27T01:02:42.299Z,35.72
2023-04-27T01:07:45.306Z,37.35
2023-04-27T01:12:48.223Z,35.35
2023-04-27T01:17:58.825Z,37.00
2023-04-27T01:23:01.817Z,35.90
2023-04-27T01:28:06.304Z,35.67
2023-04-27T01:33:09.276Z,36.65
2023-04-27T01:38:12.340Z,36.00
2023-04-27T01:43:16.572Z,35.80
2023-04-27T01:48:19.427Z,35.90
2023-04-27T01:53:22.342Z,36.40
2023-04-27T01:58:26.746Z,36.17
2023-04-27T02:03:29.843Z,35.85
2023-04-27T02:08:32.950Z,36.55
2023-04-27T02:13:37.818Z,35.35
2023-04-27T02:18:41.686Z,36.08
2023-04-27T02:23:45.948Z,35.58
2023-04-27T02:28:50.991Z,35.50
2023-04-27T02:33:54.252Z,35.90
2023-04-27T02:38:57.160Z,35.55
2023-04-27T02:44:01.417Z,35.70
2023-04-27T02:49:04.382Z,36.10
2023-04-27T02:54:07.286Z,35.92
2023-04-27T02:59:11.687Z,35.30
2023-04-27T03:04:17.525Z,35.78
2023-04-27T03:09:20.624Z,35.65
2023-04-27T03:14:24.886Z,35.20
2023-04-27T03:19:27.960Z,36.50
2023-04-27T03:24:31.037Z,35.13
2023-04-27T03:29:35.381Z,34.78
2023-04-27T03:34:38.291Z,35.30
2023-04-27T03:39:41.761Z,35.10
2023-04-27T03:44:47.320Z,34.92
2023-04-27T03:49:50.261Z,39.08
2023-04-27T03:54:53.159Z,35.97
2023-04-27T03:59:58.812Z,35.42
2023-04-27T04:05:02.053Z,35.00
2023-04-27T04:10:05.688Z,35.50
2023-04-27T04:15:12.215Z,35.90
2023-04-27T04:20:15.353Z,35.45
2023-04-27T04:25:18.797Z,35.22
2023-04-27T04:30:23.901Z,35.70
2023-04-27T04:35:26.834Z,36.58
2023-04-27T04:40:29.849Z,36.22
2023-04-27T04:45:34.274Z,35.83
2023-04-27T04:50:37.228Z,36.38
2023-04-27T04:55:41.043Z,35.90
2023-04-27T05:00:46.684Z,35.08
2023-04-27T05:05:49.626Z,35.22
2023-04-27T05:10:52.818Z,37.47
2023-04-27T05:15:57.226Z,38.63
2023-04-27T05:21:00.263Z,38.22
2023-04-27T05:26:03.173Z,37.47
2023-04-27T05:31:07.484Z,36.42
2023-04-27T05:36:11.012Z,37.10
2023-04-27T05:41:13.986Z,36.55
2023-04-27T05:46:18.274Z,36.70
2023-04-27T05:51:21.362Z,36.28
2023-04-27T05:56:24.265Z,36.33
2023-04-27T06:01:28.580Z,36.08
2023-04-27T06:06:33.365Z,36.75
2023-04-27T06:11:36.256Z,35.80
2023-04-27T06:16:41.284Z,36.05
2023-04-27T06:21:44.182Z,37.00
2023-04-27T06:26:47.074Z,36.97
2023-04-27T06:31:51.335Z,36.05
2023-04-27T06:36:54.243Z,37.03
2023-04-27T06:41:57.318Z,36.60
2023-04-27T06:47:02.921Z,36.63
2023-04-27T06:52:06.569Z,36.33
2023-04-27T06:57:09.472Z,36.75
2023-04-27T07:02:13.728Z,35.97
2023-04-27T07:07:16.642Z,36.22
2023-04-27T07:12:19.594Z,36.70
2023-04-27T07:17:23.876Z,36.30
2023-04-27T07:22:26.772Z,37.00
2023-04-27T07:27:29.670Z,37.28
2023-04-27T07:32:33.965Z,37.08
2023-04-27T07:37:37.327Z,36.13
2023-04-27T07:42:41.308Z,37.95
2023-04-27T07:47:46.314Z,38.35
2023-04-27T07:52:49.172Z,37.50
2023-04-27T07:57:53.032Z,37.25
2023-04-27T08:02:57.776Z,37.28
2023-04-27T08:08:01.058Z,36.95
2023-04-27T08:13:04.825Z,37.15
2023-04-27T08:18:09.117Z,36.80
2023-04-27T08:23:12.407Z,36.55
2023-04-27T08:28:16.526Z,36.50
2023-04-27T08:33:20.834Z,36.15
2023-04-27T08:38:25.605Z,37.05
2023-04-27T08:43:33.265Z,37.63
2023-04-27T08:48:37.502Z,38.40
2023-04-27T08:53:49.196Z,38.75
2023-04-27T08:58:52.526Z,38.70
2023-04-27T09:04:01.980Z,37.60
2023-04-27T09:09:06.968Z,39.10
2023-04-27T09:14:18.271Z,37.50
2023-04-27T09:19:27.415Z,38.92
2023-04-27T09:24:30.547Z,37.75
2023-04-27T09:29:34.570Z,38.40
2023-04-27T09:34:42.019Z,37.80
2023-04-27T09:39:46.510Z,37.90
2023-04-27T09:44:50.133Z,39.35
2023-04-27T09:49:54.382Z,37.72
2023-04-27T09:55:00.306Z,37.63
2023-04-27T10:00:17.209Z,37.00
2023-04-27T10:05:35.968Z,38.20
2023-04-27T10:10:54.386Z,38.42
2023-04-27T10:15:57.255Z,37.60
2023-04-27T10:21:12.411Z,38.58
2023-04-27T10:26:22.978Z,39.25
2023-04-27T10:31:29.190Z,37.33
2023-04-27T10:36:38.018Z,37.90
2023-04-27T10:41:50.994Z,38.10
2023-04-27T10:46:54.793Z,38.17
2023-04-27T10:52:00.780Z,37.83
2023-04-27T10:57:05.313Z,37.33
2023-04-27T11:02:12.237Z,37.53
2023-04-27T11:07:26.395Z,38.53
2023-04-27T11:12:29.432Z,37.97
2023-04-27T11:17:33.881Z,38.67
2023-04-27T11:22:45.302Z,38.50
2023-04-27T11:27:48.167Z,39.15
2023-04-27T11:32:51.756Z,38.20
2023-04-27T11:37:59.523Z,37.50
2023-04-27T11:43:04.396Z,36.97
2023-04-27T11:48:08.347Z,37.65
2023-04-27T11:53:12.611Z,37.63
2023-04-27T11:58:16.194Z,36.95
2023-04-27T12:03:19.260Z,37.67
2023-04-27T12:08:24.129Z,38.13
2023-04-27T12:13:27.219Z,37.08
2023-04-27T12:18:30.146Z,36.80
2023-04-27T12:23:34.465Z,37.05
2023-04-27T12:28:38.124Z,37.28
2023-04-27T12:33:40.984Z,37.60
2023-04-27T12:38:47.261Z,37.72
2023-04-27T12:43:50.197Z,37.22
2023-04-27T12:48:53.187Z,37.03
2023-04-27T12:53:58.716Z,36.95
2023-04-27T12:59:03.892Z,37.22
2023-04-27T13:04:08.105Z,37.65
2023-04-27T13:09:13.186Z,37.45
2023-04-27T13:14:16.306Z,37.10
2023-04-27T13:19:19.473Z,37.75
2023-04-27T13:24:24.621Z,37.20
2023-04-27T13:29:27.501Z,36.55
2023-04-27T13:34:30.413Z,37.08
2023-04-27T13:39:34.945Z,37.38
2023-04-27T13:44:37.883Z,36.53
2023-04-27T13:49:40.775Z,36.85
2023-04-27T13:54:45.307Z,36.72
2023-04-27T13:59:48.203Z,37.00
2023-04-27T14:04:51.721Z,37.45
2023-04-27T14:09:55.968Z,36.95
2023-04-27T14:14:58.914Z,36.78
2023-04-27T14:20:01.827Z,37.03
2023-04-27T14:25:07.031Z,38.00
2023-04-27T14:30:10.877Z,37.58
2023-04-27T14:35:13.804Z,37.28
2023-04-27T14:40:18.262Z,37.72
2023-04-27T14:45:22.895Z,38.17
2023-04-27T14:50:27.147Z,38.20
2023-04-27T14:55:31.565Z,38.10
2023-04-27T15:00:34.696Z,37.97
2023-04-27T15:05:37.657Z,37.78
2023-04-27T15:10:41.879Z,37.45
2023-04-27T15:15:46.095Z,37.55
2023-04-27T15:20:52.629Z,37.45
2023-04-27T15:25:59.197Z,37.17
2023-04-27T15:31:02.145Z,37.63
2023-04-27T15:36:05.580Z,37.92
2023-04-27T15:41:10.173Z,37.10
2023-04-27T15:46:14.722Z,37.25
2023-04-27T15:51:17.784Z,37.92
2023-04-27T15:56:22.066Z,37.92
2023-04-27T16:01:26.332Z,38.03
2023-04-27T16:06:34.930Z,38.08
2023-04-27T16:11:39.653Z,38.22
2023-04-27T16:16:42.581Z,37.75
2023-04-27T16:21:48.098Z,38.72
2023-04-27T16:26:52.417Z,37.72
2023-04-27T16:31:55.485Z,38.60
2023-04-27T16:36:58.544Z,38.13
2023-04-27T16:42:09.683Z,38.28
2023-04-27T16:47:12.735Z,37.42
2023-04-27T16:52:17.113Z,37.95
2023-04-27T16:57:21.549Z,38.35
2023-04-27T17:02:25.873Z,38.97
2023-04-27T17:07:32.715Z,37.83
2023-04-27T17:12:38.109Z,38.20
2023-04-27T17:17:41.285Z,38.55
2023-04-27T17:22:45.131Z,37.90
2023-04-27T17:27:49.372Z,38.72
2023-04-27T17:32:52.678Z,38.25
2023-04-27T17:37:55.868Z,38.88
2023-04-27T17:43:00.223Z,38.20
2023-04-27T17:48:03.434Z,38.08
2023-04-27T17:53:06.447Z,37.85
2023-04-27T17:58:11.205Z,38.20
2023-04-27T18:03:15.334Z,38.50
2023-04-27T18:08:18.548Z,38.47
2023-04-27T18:13:22.833Z,38.40
2023-04-27T18:18:26.853Z,38.47
2023-04-27T18:23:37.062Z,37.53
2023-04-27T18:28:41.772Z,37.83
2023-04-27T18:33:46.378Z,37.55
2023-04-27T18:38:49.262Z,37.85
2023-04-27T18:43:53.658Z,37.70
2023-04-27T18:48:56.587Z,37.75
2023-04-27T18:53:59.594Z,38.30
2023-04-27T18:59:05.484Z,38.45
2023-04-27T19:04:08.727Z,39.05
2023-04-27T19:09:11.875Z,37.55
2023-04-27T19:14:16.606Z,38.28
2023-04-27T19:19:19.731Z,38.22
2023-04-27T19:24:22.701Z,38.15
2023-04-27T19:29:27.408Z,37.95
2023-04-27T19:34:30.306Z,38.63
2023-04-27T19:39:34.671Z,37.67
2023-04-27T19:44:38.917Z,38.33
2023-04-27T19:49:41.832Z,38.88
2023-04-27T19:54:44.740Z,37.55
2023-04-27T19:59:49.122Z,37.65
2023-04-27T20:04:52.131Z,38.30
2023-04-27T20:09:55.317Z,37.28
2023-04-27T20:14:59.625Z,37.33
2023-04-27T20:20:02.906Z,37.90
2023-04-27T20:25:07.785Z,37.22
2023-04-27T20:30:12.797Z,37.10
2023-04-27T20:35:15.794Z,37.15
2023-04-27T20:40:18.954Z,36.75
2023-04-27T20:45:23.392Z,37.20
2023-04-27T20:50:26.419Z,37.38
2023-04-27T20:55:29.361Z,37.70
2023-04-27T21:00:33.602Z,37.30
2023-04-27T21:05:36.685Z,37.40
2023-04-27T21:10:39.619Z,37.38
2023-04-27T21:15:43.868Z,36.25
2023-04-27T21:20:46.786Z,37.42
2023-04-27T21:25:49.684Z,37.17
2023-04-27T21:30:54.001Z,36.85
2023-04-27T21:35:57.159Z,37.20
2023-04-27T21:41:00.246Z,37.42
2023-04-27T21:46:04.541Z,36.70
2023-04-27T21:51:07.500Z,36.95
2023-04-27T21:56:10.864Z,36.88
2023-04-27T22:01:15.153Z,36.15
2023-04-27T22:06:18.056Z,36.58
2023-04-27T22:11:21.221Z,36.40
2023-04-27T22:16:25.674Z,36.17
2023-04-27T22:21:28.913Z,37.08
2023-04-27T22:26:32.127Z,35.85
2023-04-27T22:31:36.560Z,36.25
2023-04-27T22:36:39.473Z,36.53
2023-04-27T22:41:42.363Z,36.58
2023-04-27T22:46:46.787Z,36.42
2023-04-27T22:51:50.224Z,36.72
2023-04-27T22:56:53.145Z,37.20
2023-04-27T23:01:57.415Z,36.53
2023-04-27T23:07:00.515Z,36.30
2023-04-27T23:12:04.118Z,37.05
2023-04-27T23:17:08.404Z,37.25
2023-04-27T23:22:11.294Z,37.00
2023-04-27T23:27:14.161Z,36.55
2023-04-27T23:32:18.403Z,36.75
2023-04-27T23:37:21.408Z,36.83
2023-04-27T23:42:24.248Z,36.15
2023-04-27T23:47:28.452Z,36.85
2023-04-27T23:52:31.332Z,36.60
2023-04-27T23:57:34.208Z,36.88
